createdAt,value
2022-12-04T00:00:15.350Z,51.216106
2022-12-04T00:01:15.351Z,51.216145
2022-12-04T00:02:15.359Z,51.216053
2022-12-04T00:03:15.384Z,51.216049
2022-12-04T00:04:15.355Z,51.216064
2022-12-04T00:05:15.360Z,51.216080
2022-12-04T00:06:15.313Z,51.216171
2022-12-04T00:07:15.315Z,51.216228
2022-12-04T00:08:15.422Z,51.216183
2022-12-04T00:09:15.278Z,51.216148
2022-12-04T00:10:15.287Z,51.216095
2022-12-04T00:11:15.274Z,51.216087
2022-12-04T00:12:15.295Z,51.216022
2022-12-04T00:13:15.263Z,51.216015
2022-12-04T00:14:15.259Z,51.215996
2022-12-04T00:15:30.605Z,51.216022
2022-12-04T00:16:17.317Z,51.216141
2022-12-04T00:17:15.254Z,51.216164
2022-12-04T00:18:15.223Z,51.216095
2022-12-04T00:19:15.219Z,51.216019
2022-12-04T00:20:15.213Z,51.215878
2022-12-04T00:21:15.215Z,51.215904
2022-12-04T00:22:15.202Z,51.215988
2022-12-04T00:23:15.213Z,51.216003
2022-12-04T00:24:15.188Z,51.215965
2022-12-04T00:25:15.184Z,51.216152
2022-12-04T00:26:15.174Z,51.216228
2022-12-04T00:27:15.167Z,51.216194
2022-12-04T00:28:15.174Z,51.216217
2022-12-04T00:29:15.167Z,51.216152
2022-12-04T00:30:15.144Z,51.216263
2022-12-04T00:31:15.234Z,51.216221
2022-12-04T00:32:15.130Z,51.216240
2022-12-04T00:33:15.143Z,51.216160
2022-12-04T00:34:15.135Z,51.216137
2022-12-04T00:35:15.119Z,51.216198
2022-12-04T00:36:15.110Z,51.216312
2022-12-04T00:37:15.111Z,51.216187
2022-12-04T00:38:15.107Z,51.216076
2022-12-04T00:39:15.085Z,51.216152
2022-12-04T00:40:15.086Z,51.216171
2022-12-04T00:41:15.066Z,51.216202
2022-12-04T00:42:15.063Z,51.216095
2022-12-04T00:43:15.066Z,51.216156
2022-12-04T00:44:15.075Z,51.216217
2022-12-04T00:45:15.043Z,51.216167
2022-12-04T00:46:15.076Z,51.216198
2022-12-04T00:47:15.026Z,51.216259
2022-12-04T00:48:15.028Z,51.216282
2022-12-04T00:49:15.030Z,51.216118
2022-12-04T00:50:15.015Z,51.216125
2022-12-04T00:51:15.022Z,51.216125
2022-12-04T00:52:14.995Z,51.215969
2022-12-04T00:53:14.996Z,51.215733
2022-12-04T00:54:14.996Z,51.216225
2022-12-04T00:55:14.979Z,51.216507
2022-12-04T00:56:15.032Z,51.216354
2022-12-04T00:57:14.962Z,51.216316
2022-12-04T00:58:14.962Z,51.216297
2022-12-04T00:59:14.947Z,51.216148
2022-12-04T01:00:14.939Z,51.216087
2022-12-04T01:01:15.056Z,51.216084
2022-12-04T01:02:14.917Z,51.216270
2022-12-04T01:03:14.980Z,51.216419
2022-12-04T01:04:14.919Z,51.216290
2022-12-04T01:05:14.913Z,51.216251
2022-12-04T01:06:14.959Z,51.216236
2022-12-04T01:07:14.914Z,51.216129
2022-12-04T01:08:14.962Z,51.216061
2022-12-04T01:09:14.883Z,51.216179
2022-12-04T01:10:14.918Z,51.216225
2022-12-04T01:11:14.914Z,51.216045
2022-12-04T01:12:20.414Z,51.216015
2022-12-04T01:13:16.862Z,51.216217
2022-12-04T01:14:14.850Z,51.216106
2022-12-04T01:15:14.834Z,51.216171
2022-12-04T01:16:14.885Z,51.216156
2022-12-04T01:17:14.846Z,51.216118
2022-12-04T01:18:14.845Z,51.216015
2022-12-04T01:19:14.819Z,51.215912
2022-12-04T01:20:14.813Z,51.215939
2022-12-04T01:21:14.818Z,51.215904
2022-12-04T01:22:14.798Z,51.215988
2022-12-04T01:23:14.812Z,51.216213
2022-12-04T01:24:14.776Z,51.216045
2022-12-04T01:25:14.781Z,51.216030
2022-12-04T01:26:14.770Z,51.216034
2022-12-04T01:27:14.786Z,51.216042
2022-12-04T01:28:14.759Z,51.215889
2022-12-04T01:29:14.752Z,51.215965
2022-12-04T01:30:14.743Z,51.216091
2022-12-04T01:31:14.765Z,51.216026
2022-12-04T01:32:14.835Z,51.216068
2022-12-04T01:33:14.737Z,51.216137
2022-12-04T01:34:14.712Z,51.216164
2022-12-04T01:35:14.711Z,51.216084
2022-12-04T01:36:14.703Z,51.216061
2022-12-04T01:37:14.684Z,51.216011
2022-12-04T01:38:14.703Z,51.215919
2022-12-04T01:39:14.684Z,51.216068
2022-12-04T01:40:14.680Z,51.216019
2022-12-04T01:41:14.679Z,51.216129
2022-12-04T01:42:14.656Z,51.216045
2022-12-04T01:43:14.659Z,51.215977
2022-12-04T01:44:14.666Z,51.215981
2022-12-04T01:45:14.644Z,51.216091
2022-12-04T01:46:14.736Z,51.216125
2022-12-04T01:47:14.656Z,51.216114
2022-12-04T01:48:14.627Z,51.216095
2022-12-04T01:49:14.609Z,51.215996
2022-12-04T01:50:14.619Z,51.216122
2022-12-04T01:51:14.615Z,51.216198
2022-12-04T01:52:14.616Z,51.216164
2022-12-04T01:53:14.592Z,51.216110
2022-12-04T01:54:14.604Z,51.216087
2022-12-04T01:55:14.576Z,51.216202
2022-12-04T01:56:14.572Z,51.216270
2022-12-04T01:57:14.562Z,51.216145
2022-12-04T01:58:14.556Z,51.216202
2022-12-04T01:59:14.564Z,51.216259
2022-12-04T02:00:14.545Z,51.216167
2022-12-04T02:01:14.629Z,51.216038
2022-12-04T02:02:14.788Z,51.215904
2022-12-04T02:03:14.596Z,51.216206
2022-12-04T02:04:14.548Z,51.216095
2022-12-04T02:05:14.523Z,51.216110
2022-12-04T02:06:14.516Z,51.216099
2022-12-04T02:07:14.513Z,51.216003
2022-12-04T02:08:14.562Z,51.216007
2022-12-04T02:09:14.519Z,51.215973
2022-12-04T02:10:14.481Z,51.216015
2022-12-04T02:11:14.491Z,51.216080
2022-12-04T02:12:14.472Z,51.216114
2022-12-04T02:13:14.463Z,51.216187
2022-12-04T02:14:14.460Z,51.216068
2022-12-04T02:15:14.472Z,51.216049
2022-12-04T02:16:14.530Z,51.216080
2022-12-04T02:17:14.450Z,51.216110
2022-12-04T02:18:14.434Z,51.216038
2022-12-04T02:19:14.414Z,51.216064
2022-12-04T02:20:14.408Z,51.216084
2022-12-04T02:21:14.438Z,51.216011
2022-12-04T02:22:14.404Z,51.216030
2022-12-04T02:23:14.387Z,51.216167
2022-12-04T02:24:14.392Z,51.216122
2022-12-04T02:25:14.375Z,51.216148
2022-12-04T02:26:14.372Z,51.216042
2022-12-04T02:27:14.379Z,51.215919
2022-12-04T02:28:14.349Z,51.216129
2022-12-04T02:29:14.350Z,51.216080
2022-12-04T02:30:14.353Z,51.216072
2022-12-04T02:31:14.468Z,51.216011
2022-12-04T02:32:14.350Z,51.215988
2022-12-04T02:33:14.331Z,51.216084
2022-12-04T02:34:14.324Z,51.216026
2022-12-04T02:35:14.307Z,51.216206
2022-12-04T02:36:14.450Z,51.216129
2022-12-04T02:37:14.337Z,51.216003
2022-12-04T02:38:14.293Z,51.215992
2022-12-04T02:39:14.286Z,51.216270
2022-12-04T02:40:14.282Z,51.216396
2022-12-04T02:41:14.275Z,51.216137
2022-12-04T02:42:14.283Z,51.216045
2022-12-04T02:43:15.263Z,51.215786
2022-12-04T02:44:14.257Z,51.215878
2022-12-04T02:45:14.263Z,51.215946
2022-12-04T02:46:14.309Z,51.216156
2022-12-04T02:47:14.234Z,51.216095
2022-12-04T02:48:14.226Z,51.216068
2022-12-04T02:49:14.235Z,51.215961
2022-12-04T02:50:14.295Z,51.215878
2022-12-04T02:51:14.206Z,51.215942
2022-12-04T02:52:14.194Z,51.216099
2022-12-04T02:53:14.201Z,51.216236
2022-12-04T02:54:14.181Z,51.216080
2022-12-04T02:55:14.184Z,51.216003
2022-12-04T02:56:14.180Z,51.215916
2022-12-04T02:57:14.177Z,51.216187
2022-12-04T02:58:14.190Z,51.216190
2022-12-04T02:59:14.164Z,51.216236
2022-12-04T03:00:14.163Z,51.216145
2022-12-04T03:01:14.239Z,51.216267
2022-12-04T03:02:14.145Z,51.216003
2022-12-04T03:03:14.140Z,51.215855
2022-12-04T03:04:14.118Z,51.216003
2022-12-04T03:05:14.127Z,51.215698
2022-12-04T03:06:14.108Z,51.215721
2022-12-04T03:07:14.103Z,51.215897
2022-12-04T03:08:14.144Z,51.215942
2022-12-04T03:09:14.083Z,51.216064
2022-12-04T03:10:14.081Z,51.216156
2022-12-04T03:11:14.076Z,51.216217
2022-12-04T03:12:14.063Z,51.216106
2022-12-04T03:13:14.046Z,51.215996
2022-12-04T03:14:14.039Z,51.215904
2022-12-04T03:15:14.050Z,51.216000
2022-12-04T03:16:14.205Z,51.216125
2022-12-04T03:17:14.071Z,51.215992
2022-12-04T03:18:14.046Z,51.216003
2022-12-04T03:19:14.023Z,51.216091
2022-12-04T03:20:14.035Z,51.216057
2022-12-04T03:21:14.029Z,51.216034
2022-12-04T03:22:14.027Z,51.216064
2022-12-04T03:23:13.997Z,51.216080
2022-12-04T03:24:13.987Z,51.216095
2022-12-04T03:25:14.012Z,51.215961
2022-12-04T03:26:13.970Z,51.215992
2022-12-04T03:27:13.971Z,51.216045
2022-12-04T03:28:13.964Z,51.216072
2022-12-04T03:29:13.954Z,51.216007
2022-12-04T03:30:13.941Z,51.216038
2022-12-04T03:31:13.992Z,51.216015
2022-12-04T03:32:13.959Z,51.216030
2022-12-04T03:33:13.982Z,51.216160
2022-12-04T03:34:13.922Z,51.216164
2022-12-04T03:35:13.916Z,51.216030
2022-12-04T03:36:13.927Z,51.216248
2022-12-04T03:37:13.910Z,51.216045
2022-12-04T03:38:13.898Z,51.215992
2022-12-04T03:39:13.889Z,51.216141
2022-12-04T03:40:13.881Z,51.216148
2022-12-04T03:41:13.874Z,51.216072
2022-12-04T03:42:13.879Z,51.216175
2022-12-04T03:43:13.856Z,51.216160
2022-12-04T03:44:13.858Z,51.216076
2022-12-04T03:45:13.838Z,51.215946
2022-12-04T03:46:13.906Z,51.216045
2022-12-04T03:47:13.849Z,51.216015
2022-12-04T03:48:16.803Z,51.215855
2022-12-04T03:49:14.831Z,51.215916
2022-12-04T03:50:13.822Z,51.216034
2022-12-04T03:51:13.806Z,51.215969
2022-12-04T03:52:13.812Z,51.215843
2022-12-04T03:53:13.807Z,51.215717
2022-12-04T03:54:13.791Z,51.215778
2022-12-04T03:55:13.787Z,51.215878
2022-12-04T03:56:13.791Z,51.215977
2022-12-04T03:57:13.778Z,51.215904
2022-12-04T03:58:13.783Z,51.216034
2022-12-04T03:59:13.771Z,51.216183
2022-12-04T04:00:13.754Z,51.216049
2022-12-04T04:01:13.783Z,51.216038
2022-12-04T04:02:13.793Z,51.216072
2022-12-04T04:03:13.731Z,51.215942
2022-12-04T04:04:13.735Z,51.215786
2022-12-04T04:05:13.715Z,51.215961
2022-12-04T04:06:13.707Z,51.216003
2022-12-04T04:07:13.704Z,51.216072
2022-12-04T04:08:13.765Z,51.216129
2022-12-04T04:09:13.765Z,51.216122
2022-12-04T04:10:13.674Z,51.216110
2022-12-04T04:11:13.678Z,51.216015
2022-12-04T04:12:13.667Z,51.216019
2022-12-04T04:13:13.667Z,51.216045
2022-12-04T04:14:13.662Z,51.216106
2022-12-04T04:15:13.682Z,51.215981
2022-12-04T04:16:13.689Z,51.215969
2022-12-04T04:17:13.627Z,51.216286
2022-12-04T04:18:13.625Z,51.216110
2022-12-04T04:19:13.624Z,51.216042
2022-12-04T04:20:13.614Z,51.216057
2022-12-04T04:21:13.606Z,51.215782
2022-12-04T04:22:13.601Z,51.216106
2022-12-04T04:23:13.590Z,51.216038
2022-12-04T04:24:13.600Z,51.216076
2022-12-04T04:25:13.574Z,51.216190
2022-12-04T04:26:13.575Z,51.216061
2022-12-04T04:27:13.562Z,51.216091
2022-12-04T04:28:13.561Z,51.216148
2022-12-04T04:29:13.559Z,51.216183
2022-12-04T04:30:13.539Z,51.216244
2022-12-04T04:31:13.674Z,51.216236
2022-12-04T04:32:13.526Z,51.216156
2022-12-04T04:33:13.518Z,51.216133
2022-12-04T04:34:13.510Z,51.216061
2022-12-04T04:35:13.520Z,51.216141
2022-12-04T04:36:13.494Z,51.216080
2022-12-04T04:37:13.495Z,51.216061
2022-12-04T04:38:13.484Z,51.215897
2022-12-04T04:39:13.483Z,51.215736
2022-12-04T04:40:13.490Z,51.215801
2022-12-04T04:41:13.467Z,51.215988
2022-12-04T04:42:13.463Z,51.216072
2022-12-04T04:43:13.474Z,51.216187
2022-12-04T04:44:13.446Z,51.216244
2022-12-04T04:45:13.456Z,51.216221
2022-12-04T04:46:13.494Z,51.216156
2022-12-04T04:47:13.438Z,51.216007
2022-12-04T04:48:13.428Z,51.215843
2022-12-04T04:49:13.418Z,51.216042
2022-12-04T04:50:13.414Z,51.216084
2022-12-04T04:51:13.410Z,51.216095
2022-12-04T04:52:13.415Z,51.216236
2022-12-04T04:53:13.391Z,51.216106
2022-12-04T04:54:13.390Z,51.215561
2022-12-04T04:55:13.378Z,51.215691
2022-12-04T04:56:13.378Z,51.216213
2022-12-04T04:57:13.377Z,51.216049
2022-12-04T04:58:13.362Z,51.216202
2022-12-04T04:59:13.346Z,51.216167
2022-12-04T05:00:13.354Z,51.216175
2022-12-04T05:01:13.385Z,51.216122
2022-12-04T05:02:13.415Z,51.216187
2022-12-04T05:03:13.371Z,51.216099
2022-12-04T05:04:13.310Z,51.216141
2022-12-04T05:05:13.309Z,51.216125
2022-12-04T05:06:13.299Z,51.216026
2022-12-04T05:07:13.294Z,51.215939
2022-12-04T05:08:13.324Z,51.215885
2022-12-04T05:09:13.274Z,51.215603
2022-12-04T05:10:13.274Z,51.215721
2022-12-04T05:11:13.261Z,51.215759
2022-12-04T05:12:13.278Z,51.215481
2022-12-04T05:13:13.263Z,51.215786
2022-12-04T05:14:13.235Z,51.216011
2022-12-04T05:15:13.245Z,51.216225
2022-12-04T05:16:13.280Z,51.215996
2022-12-04T05:17:13.232Z,51.215904
2022-12-04T05:18:13.238Z,51.215946
2022-12-04T05:19:13.219Z,51.216084
2022-12-04T05:20:13.214Z,51.215931
2022-12-04T05:21:13.199Z,51.215973
2022-12-04T05:22:13.185Z,51.216061
2022-12-04T05:23:13.200Z,51.215981
2022-12-04T05:24:13.182Z,51.216255
2022-12-04T05:25:13.170Z,51.216404
2022-12-04T05:26:13.166Z,51.216587
2022-12-04T05:27:13.158Z,51.216740
2022-12-04T05:28:13.146Z,51.216694
2022-12-04T05:29:13.147Z,51.216122
2022-12-04T05:30:13.147Z,51.216068
2022-12-04T05:31:13.186Z,51.216084
2022-12-04T05:32:13.125Z,51.215881
2022-12-04T05:33:13.115Z,51.215824
2022-12-04T05:34:13.097Z,51.215912
2022-12-04T05:35:13.098Z,51.216061
2022-12-04T05:36:13.080Z,51.215916
2022-12-04T05:37:13.079Z,51.215996
2022-12-04T05:38:13.095Z,51.216053
2022-12-04T05:39:13.063Z,51.216042
2022-12-04T05:40:13.062Z,51.216042
2022-12-04T05:41:13.054Z,51.215954
2022-12-04T05:42:13.049Z,51.215839
2022-12-04T05:43:13.070Z,51.216030
2022-12-04T05:44:13.045Z,51.216084
2022-12-04T05:45:13.048Z,51.216152
2022-12-04T05:46:13.066Z,51.216148
2022-12-04T05:47:13.017Z,51.216148
2022-12-04T05:48:13.034Z,51.216145
2022-12-04T05:49:13.026Z,51.216084
2022-12-04T05:50:13.003Z,51.216076
2022-12-04T05:51:12.991Z,51.216156
2022-12-04T05:52:13.002Z,51.215954
2022-12-04T05:53:12.990Z,51.215992
2022-12-04T05:54:12.975Z,51.216022
2022-12-04T05:55:12.956Z,51.215881
2022-12-04T05:56:12.958Z,51.216045
2022-12-04T05:57:12.946Z,51.216091
2022-12-04T05:58:12.950Z,51.216099
2022-12-04T05:59:12.951Z,51.216110
2022-12-04T06:00:12.960Z,51.216148
2022-12-04T06:01:12.941Z,51.216042
2022-12-04T06:02:12.983Z,51.215973
2022-12-04T06:03:12.971Z,51.216064
2022-12-04T06:04:12.914Z,51.216110
2022-12-04T06:05:12.894Z,51.216061
2022-12-04T06:06:19.263Z,51.216274
2022-12-04T06:07:14.885Z,51.216206
2022-12-04T06:08:12.948Z,51.216110
2022-12-04T06:09:12.912Z,51.216049
2022-12-04T06:10:12.854Z,51.216133
2022-12-04T06:11:12.861Z,51.216000
2022-12-04T06:12:12.853Z,51.216183
2022-12-04T06:13:12.843Z,51.216022
2022-12-04T06:14:12.848Z,51.216103
2022-12-04T06:15:12.836Z,51.216015
2022-12-04T06:16:12.850Z,51.215298
2022-12-04T06:17:12.809Z,51.215672
2022-12-04T06:18:12.827Z,51.215805
2022-12-04T06:19:12.794Z,51.215954
2022-12-04T06:20:12.820Z,51.216034
2022-12-04T06:21:12.778Z,51.216003
2022-12-04T06:22:12.770Z,51.216106
2022-12-04T06:23:12.786Z,51.216183
2022-12-04T06:24:12.779Z,51.216091
2022-12-04T06:25:12.738Z,51.216072
2022-12-04T06:26:12.756Z,51.216118
2022-12-04T06:27:27.221Z,51.216114
2022-12-04T06:28:14.769Z,51.215946
2022-12-04T06:29:12.732Z,51.216045
2022-12-04T06:30:12.726Z,51.216091
2022-12-04T06:31:12.714Z,51.216145
2022-12-04T06:32:16.512Z,51.216217
2022-12-04T06:33:14.800Z,51.216091
2022-12-04T06:34:12.707Z,51.216125
2022-12-04T06:35:12.690Z,51.216099
2022-12-04T06:36:12.686Z,51.216057
2022-12-04T06:37:12.671Z,51.215916
2022-12-04T06:38:12.667Z,51.216042
2022-12-04T06:39:18.342Z,51.215981
2022-12-04T06:40:14.658Z,51.216099
2022-12-04T06:41:12.647Z,51.216053
2022-12-04T06:42:12.635Z,51.216057
2022-12-04T06:43:12.639Z,51.216125
2022-12-04T06:44:12.631Z,51.215858
2022-12-04T06:45:12.638Z,51.216110
2022-12-04T06:46:12.698Z,51.216019
2022-12-04T06:47:12.607Z,51.216019
2022-12-04T06:48:12.594Z,51.216137
2022-12-04T06:49:12.589Z,51.216160
2022-12-04T06:50:12.581Z,51.216106
2022-12-04T06:51:12.581Z,51.216221
2022-12-04T06:52:12.567Z,51.216324
2022-12-04T06:53:12.559Z,51.216187
2022-12-04T06:54:12.566Z,51.216110
2022-12-04T06:55:12.551Z,51.216152
2022-12-04T06:56:12.538Z,51.216187
2022-12-04T06:57:12.542Z,51.216045
2022-12-04T06:58:12.520Z,51.216133
2022-12-04T06:59:12.516Z,51.216152
2022-12-04T07:00:12.527Z,51.216049
2022-12-04T07:01:12.564Z,51.215969
2022-12-04T07:02:12.594Z,51.215958
2022-12-04T07:03:12.507Z,51.216080
2022-12-04T07:04:12.507Z,51.216225
2022-12-04T07:05:12.483Z,51.216057
2022-12-04T07:06:12.498Z,51.216087
2022-12-04T07:07:12.492Z,51.216003
2022-12-04T07:08:12.528Z,51.216080
2022-12-04T07:09:12.465Z,51.216034
2022-12-04T07:10:12.461Z,51.216061
2022-12-04T07:11:12.474Z,51.216087
2022-12-04T07:12:12.457Z,51.216057
2022-12-04T07:13:12.442Z,51.216125
2022-12-04T07:14:12.444Z,51.216118
2022-12-04T07:15:12.429Z,51.216057
2022-12-04T07:16:12.469Z,51.216068
2022-12-04T07:17:12.458Z,51.216095
2022-12-04T07:18:12.401Z,51.216141
2022-12-04T07:19:12.406Z,51.216114
2022-12-04T07:20:12.400Z,51.216038
2022-12-04T07:21:12.394Z,51.215996
2022-12-04T07:22:12.370Z,51.216072
2022-12-04T07:23:12.365Z,51.216030
2022-12-04T07:24:12.389Z,51.216129
2022-12-04T07:25:12.353Z,51.216110
2022-12-04T07:26:12.341Z,51.216164
2022-12-04T07:27:12.341Z,51.216152
2022-12-04T07:28:12.333Z,51.216099
2022-12-04T07:29:12.323Z,51.216175
2022-12-04T07:30:15.652Z,51.216106
2022-12-04T07:31:13.354Z,51.216053
2022-12-04T07:32:12.384Z,51.216160
2022-12-04T07:33:12.291Z,51.216190
2022-12-04T07:34:12.291Z,51.216091
2022-12-04T07:35:12.277Z,51.216095
2022-12-04T07:36:12.305Z,51.216087
2022-12-04T07:37:12.277Z,51.216038
2022-12-04T07:38:12.261Z,51.216022
2022-12-04T07:39:12.257Z,51.216038
2022-12-04T07:40:12.249Z,51.216007
2022-12-04T07:41:12.252Z,51.216053
2022-12-04T07:42:12.245Z,51.216080
2022-12-04T07:43:12.222Z,51.216000
2022-12-04T07:44:12.214Z,51.215954
2022-12-04T07:45:12.206Z,51.216003
2022-12-04T07:46:12.275Z,51.216137
2022-12-04T07:47:12.210Z,51.216156
2022-12-04T07:48:12.189Z,51.216194
2022-12-04T07:49:12.199Z,51.216133
2022-12-04T07:50:12.166Z,51.216015
2022-12-04T07:51:12.166Z,51.216034
2022-12-04T07:52:12.181Z,51.216057
2022-12-04T07:53:12.195Z,51.216038
2022-12-04T07:54:12.150Z,51.216125
2022-12-04T07:55:12.140Z,51.216049
2022-12-04T07:56:12.133Z,51.215973
2022-12-04T07:57:12.131Z,51.216068
2022-12-04T07:58:12.151Z,51.216095
2022-12-04T07:59:12.111Z,51.216324
2022-12-04T08:00:12.110Z,51.216129
2022-12-04T08:01:12.160Z,51.216099
2022-12-04T08:02:12.099Z,51.216095
2022-12-04T08:03:12.118Z,51.215996
2022-12-04T08:04:12.144Z,51.215954
2022-12-04T08:05:12.070Z,51.215916
2022-12-04T08:06:12.050Z,51.216026
2022-12-04T08:07:12.050Z,51.216049
2022-12-04T08:08:12.067Z,51.216095
2022-12-04T08:09:12.073Z,51.216137
2022-12-04T08:10:12.036Z,51.216145
2022-12-04T08:11:12.030Z,51.216068
2022-12-04T08:12:12.024Z,51.216125
2022-12-04T08:13:12.026Z,51.216221
2022-12-04T08:14:12.055Z,51.216190
2022-12-04T08:15:12.004Z,51.216122
2022-12-04T08:16:11.986Z,51.216042
2022-12-04T08:17:12.116Z,51.216114
2022-12-04T08:18:11.975Z,51.216145
2022-12-04T08:19:11.981Z,51.216156
2022-12-04T08:20:11.961Z,51.216072
2022-12-04T08:21:11.959Z,51.216164
2022-12-04T08:22:11.973Z,51.216099
2022-12-04T08:23:11.945Z,51.216003
2022-12-04T08:24:11.937Z,51.216007
2022-12-04T08:25:11.926Z,51.216057
2022-12-04T08:26:11.925Z,51.216118
2022-12-04T08:27:11.950Z,51.216156
2022-12-04T08:28:11.922Z,51.216228
2022-12-04T08:29:11.902Z,51.216507
2022-12-04T08:30:11.891Z,51.216221
2022-12-04T08:31:12.027Z,51.216187
2022-12-04T08:32:11.919Z,51.216038
2022-12-04T08:33:12.007Z,51.216087
2022-12-04T08:34:11.873Z,51.216045
2022-12-04T08:35:11.873Z,51.215984
2022-12-04T08:36:11.862Z,51.215969
2022-12-04T08:37:11.850Z,51.216038
2022-12-04T08:38:11.868Z,51.216015
2022-12-04T08:39:11.834Z,51.216087
2022-12-04T08:40:11.834Z,51.216103
2022-12-04T08:41:11.828Z,51.216187
2022-12-04T08:42:11.834Z,51.216179
2022-12-04T08:43:11.801Z,51.216137
2022-12-04T08:44:11.813Z,51.216187
2022-12-04T08:45:11.822Z,51.216137
2022-12-04T08:46:11.867Z,51.216087
2022-12-04T08:47:11.775Z,51.216053
2022-12-04T08:48:11.775Z,51.215965
2022-12-04T08:49:11.771Z,51.215885
2022-12-04T08:50:11.771Z,51.215839
2022-12-04T08:51:11.762Z,51.216019
2022-12-04T08:52:11.745Z,51.216110
2022-12-04T08:53:11.741Z,51.216152
2022-12-04T08:54:11.732Z,51.216114
2022-12-04T08:55:11.733Z,51.216125
2022-12-04T08:56:11.741Z,51.216076
2022-12-04T08:57:11.721Z,51.215855
2022-12-04T08:58:11.701Z,51.215706
2022-12-04T08:59:11.693Z,51.215759
2022-12-04T09:00:11.694Z,51.216084
2022-12-04T09:01:11.919Z,51.216042
2022-12-04T09:02:11.697Z,51.216206
2022-12-04T09:03:11.671Z,51.216217
2022-12-04T09:04:11.744Z,51.216297
2022-12-04T09:05:11.658Z,51.216206
2022-12-04T09:06:11.653Z,51.216175
2022-12-04T09:07:11.673Z,51.216084
2022-12-04T09:08:11.717Z,51.216156
2022-12-04T09:09:11.657Z,51.216164
2022-12-04T09:10:11.632Z,51.216091
2022-12-04T09:11:11.618Z,51.216064
2022-12-04T09:12:11.607Z,51.215839
2022-12-04T09:13:11.634Z,51.215885
2022-12-04T09:14:11.601Z,51.215965
2022-12-04T09:15:11.588Z,51.216103
2022-12-04T09:16:11.694Z,51.216141
2022-12-04T09:17:11.573Z,51.216179
2022-12-04T09:18:11.584Z,51.216022
2022-12-04T09:19:11.564Z,51.216019
2022-12-04T09:20:11.561Z,51.215950
2022-12-04T09:21:11.538Z,51.215935
2022-12-04T09:22:12.541Z,51.215939
2022-12-04T09:23:11.536Z,51.216183
2022-12-04T09:24:11.545Z,51.216148
2022-12-04T09:25:11.517Z,51.216137
2022-12-04T09:26:11.516Z,51.216232
2022-12-04T09:27:14.966Z,51.216209
2022-12-04T09:28:12.517Z,51.216171
2022-12-04T09:29:11.516Z,51.216045
2022-12-04T09:30:11.485Z,51.216118
2022-12-04T09:31:11.579Z,51.215912
2022-12-04T09:32:11.477Z,51.215984
2022-12-04T09:33:11.466Z,51.215996
2022-12-04T09:34:11.468Z,51.216000
2022-12-04T09:35:11.472Z,51.216114
2022-12-04T09:36:11.457Z,51.216080
2022-12-04T09:37:11.441Z,51.216045
2022-12-04T09:38:11.441Z,51.216007
2022-12-04T09:39:11.436Z,51.216217
2022-12-04T09:40:11.444Z,51.216129
2022-12-04T09:41:11.424Z,51.216091
2022-12-04T09:42:11.416Z,51.216309
2022-12-04T09:43:11.410Z,51.216187
2022-12-04T09:44:11.398Z,51.216228
2022-12-04T09:45:11.417Z,51.216049
2022-12-04T09:46:11.414Z,51.216099
2022-12-04T09:47:11.441Z,51.216179
2022-12-04T09:48:11.377Z,51.215851
2022-12-04T09:49:11.361Z,51.216019
2022-12-04T09:50:11.361Z,51.216209
2022-12-04T09:51:11.368Z,51.215977
2022-12-04T09:52:11.343Z,51.215981
2022-12-04T09:53:11.337Z,51.216003
2022-12-04T09:54:11.324Z,51.215851
2022-12-04T09:55:11.319Z,51.215878
2022-12-04T09:56:11.325Z,51.216049
2022-12-04T09:57:11.304Z,51.216152
2022-12-04T09:58:11.296Z,51.216343
2022-12-04T09:59:11.295Z,51.216232
2022-12-04T10:00:11.298Z,51.216274
2022-12-04T10:01:11.287Z,51.216423
2022-12-04T10:02:11.352Z,51.216415
2022-12-04T10:03:11.389Z,51.216457
2022-12-04T10:04:11.308Z,51.216244
2022-12-04T10:05:11.245Z,51.216187
2022-12-04T10:06:11.253Z,51.215977
2022-12-04T10:07:11.276Z,51.216175
2022-12-04T10:08:11.299Z,51.216091
2022-12-04T10:09:11.232Z,51.216164
2022-12-04T10:10:11.204Z,51.216240
2022-12-04T10:11:11.216Z,51.216099
2022-12-04T10:12:11.221Z,51.216301
2022-12-04T10:13:11.201Z,51.216381
2022-12-04T10:14:11.193Z,51.216293
2022-12-04T10:15:11.197Z,51.216484
2022-12-04T10:16:11.225Z,51.216522
2022-12-04T10:17:11.173Z,51.216492
2022-12-04T10:18:11.176Z,51.216263
2022-12-04T10:19:11.153Z,51.216129
2022-12-04T10:20:11.156Z,51.215908
2022-12-04T10:21:11.148Z,51.215961
2022-12-04T10:22:11.136Z,51.216160
2022-12-04T10:23:13.945Z,51.216255
2022-12-04T10:24:12.116Z,51.216091
2022-12-04T10:25:11.123Z,51.216057
2022-12-04T10:26:11.110Z,51.216156
2022-12-04T10:27:11.106Z,51.216167
2022-12-04T10:28:11.121Z,51.215912
2022-12-04T10:29:12.090Z,51.215496
2022-12-04T10:30:11.093Z,51.215698
2022-12-04T10:31:11.202Z,51.215797
2022-12-04T10:32:11.067Z,51.215981
2022-12-04T10:33:11.071Z,51.215660
2022-12-04T10:34:11.071Z,51.215851
2022-12-04T10:35:11.052Z,51.215889
2022-12-04T10:36:11.040Z,51.215740
2022-12-04T10:37:12.043Z,51.215805
2022-12-04T10:38:11.033Z,51.216148
2022-12-04T10:39:11.041Z,51.216118
2022-12-04T10:40:11.054Z,51.216209
2022-12-04T10:41:14.898Z,51.216270
2022-12-04T10:42:12.007Z,51.216202
2022-12-04T10:43:10.997Z,51.216175
2022-12-04T10:44:10.995Z,51.216137
2022-12-04T10:45:10.999Z,51.216103
2022-12-04T10:46:11.042Z,51.216213
2022-12-04T10:47:11.028Z,51.216175
2022-12-04T10:48:10.970Z,51.216137
2022-12-04T10:49:10.959Z,51.215912
2022-12-04T10:50:10.952Z,51.215973
2022-12-04T10:51:10.943Z,51.216080
2022-12-04T10:52:11.945Z,51.215984
2022-12-04T10:53:13.836Z,51.216087
2022-12-04T10:54:11.929Z,51.216099
2022-12-04T10:55:10.926Z,51.216068
2022-12-04T10:56:10.914Z,51.216125
2022-12-04T10:57:10.908Z,51.215771
2022-12-04T10:58:10.886Z,51.215824
2022-12-04T10:59:11.895Z,51.215904
2022-12-04T11:00:10.899Z,51.215919
2022-12-04T11:01:10.888Z,51.215939
2022-12-04T11:02:10.899Z,51.215794
2022-12-04T11:03:10.928Z,51.215809
2022-12-04T11:04:10.867Z,51.215931
2022-12-04T11:05:10.859Z,51.216000
2022-12-04T11:06:10.872Z,51.216007
2022-12-04T11:07:10.848Z,51.216072
2022-12-04T11:08:13.382Z,51.216084
2022-12-04T11:09:10.823Z,51.216030
2022-12-04T11:10:10.831Z,51.216049
2022-12-04T11:11:10.846Z,51.216091
2022-12-04T11:12:10.803Z,51.216064
2022-12-04T11:13:10.804Z,51.215858
2022-12-04T11:14:10.802Z,51.215992
2022-12-04T11:15:10.890Z,51.215992
2022-12-04T11:16:11.906Z,51.216061
2022-12-04T11:17:10.777Z,51.216164
2022-12-04T11:18:10.768Z,51.216019
2022-12-04T11:19:10.769Z,51.216045
2022-12-04T11:20:10.767Z,51.215965
2022-12-04T11:21:10.742Z,51.215908
2022-12-04T11:22:11.778Z,51.215996
2022-12-04T11:23:10.734Z,51.215847
2022-12-04T11:24:12.749Z,51.215900